createdAt,value
2023-05-11T00:01:49.311Z,50.56
2023-05-11T00:04:16.113Z,50.79
2023-05-11T00:06:43.039Z,50.81
2023-05-11T00:09:11.296Z,50.57
2023-05-11T00:11:38.248Z,50.85
2023-05-11T00:14:05.203Z,50.83
2023-05-11T00:16:32.167Z,50.34
2023-05-11T00:18:59.182Z,50.63
2023-05-11T00:21:26.167Z,50.40
2023-05-11T00:23:52.924Z,50.66
2023-05-11T00:26:19.647Z,50.49
2023-05-11T00:28:46.466Z,50.38
2023-05-11T00:31:13.314Z,49.92
2023-05-11T00:33:40.074Z,49.94
2023-05-11T00:36:08.243Z,50.42
2023-05-11T00:38:36.797Z,49.92
2023-05-11T00:41:03.533Z,49.98
2023-05-11T00:43:30.524Z,49.85
2023-05-11T00:45:57.374Z,49.84
2023-05-11T00:48:24.221Z,50.06
2023-05-11T00:50:51.115Z,49.76
2023-05-11T00:53:18.093Z,49.90
2023-05-11T00:55:44.949Z,49.96
2023-05-11T00:58:11.950Z,50.05
2023-05-11T01:00:39.108Z,49.93
2023-05-11T01:03:05.972Z,50.04
2023-05-11T01:05:42.244Z,49.93
2023-05-11T01:08:19.069Z,50.11
2023-05-11T01:10:49.668Z,50.06
2023-05-11T01:13:32.961Z,49.76
2023-05-11T01:15:59.831Z,50.07
2023-05-11T01:18:40.552Z,49.96
2023-05-11T01:21:07.474Z,50.04
2023-05-11T01:23:48.776Z,49.92
2023-05-11T01:26:37.844Z,49.96
2023-05-11T01:29:16.126Z,49.70
2023-05-11T01:31:43.370Z,49.93
2023-05-11T01:34:13.341Z,49.81
2023-05-11T01:36:44.771Z,49.75
2023-05-11T01:39:11.722Z,50.32
2023-05-11T01:41:39.538Z,50.13
2023-05-11T01:44:08.147Z,50.09
2023-05-11T01:46:35.174Z,50.24
2023-05-11T01:49:03.664Z,49.91
2023-05-11T01:51:34.391Z,50.02
2023-05-11T01:54:01.143Z,50.17
2023-05-11T01:56:28.100Z,49.93
2023-05-11T01:58:55.703Z,49.79
2023-05-11T02:01:22.826Z,50.05
2023-05-11T02:03:50.143Z,50.24
2023-05-11T02:06:18.264Z,50.14
2023-05-11T02:08:45.372Z,50.16
2023-05-11T02:11:12.084Z,50.02
2023-05-11T02:13:39.527Z,49.98
2023-05-11T02:16:06.822Z,49.94
2023-05-11T02:18:33.578Z,50.03
2023-05-11T02:21:00.650Z,50.20
2023-05-11T02:23:27.880Z,49.97
2023-05-11T02:25:54.656Z,50.07
2023-05-11T02:28:21.511Z,49.91
2023-05-11T02:30:54.298Z,49.93
2023-05-11T02:33:24.938Z,49.96
2023-05-11T02:35:52.014Z,50.08
2023-05-11T02:38:18.862Z,49.80
2023-05-11T02:40:50.566Z,49.87
2023-05-11T02:43:24.857Z,50.01
2023-05-11T02:45:54.539Z,49.87
2023-05-11T02:48:27.076Z,49.85
2023-05-11T02:50:55.391Z,49.79
2023-05-11T02:53:22.989Z,50.11
2023-05-11T02:55:50.968Z,50.03
2023-05-11T02:58:18.682Z,49.71
2023-05-11T03:00:45.672Z,49.78
2023-05-11T03:03:12.692Z,49.95
2023-05-11T03:05:40.074Z,50.11
2023-05-11T03:08:06.841Z,50.08
2023-05-11T03:10:34.488Z,50.09
2023-05-11T03:13:01.486Z,49.82
2023-05-11T03:15:28.258Z,50.07
2023-05-11T03:17:55.202Z,49.90
2023-05-11T03:20:22.171Z,49.90
2023-05-11T03:22:48.921Z,50.00
2023-05-11T03:25:16.108Z,49.86
2023-05-11T03:27:43.063Z,49.93
2023-05-11T03:30:10.339Z,49.84
2023-05-11T03:32:37.129Z,50.12
2023-05-11T03:35:04.171Z,50.12
2023-05-11T03:37:31.460Z,50.14
2023-05-11T03:39:59.439Z,50.13
2023-05-11T03:42:26.891Z,50.22
2023-05-11T03:44:56.069Z,50.40
2023-05-11T03:47:22.860Z,50.20
2023-05-11T03:49:50.151Z,50.40
2023-05-11T03:52:17.313Z,50.35
2023-05-11T03:54:44.034Z,50.38
2023-05-11T03:57:11.411Z,50.17
2023-05-11T03:59:41.315Z,50.25
2023-05-11T04:02:08.681Z,50.49
2023-05-11T04:04:35.794Z,50.25
2023-05-11T04:07:02.546Z,50.42
2023-05-11T04:09:29.352Z,50.35
2023-05-11T04:11:56.322Z,50.37
2023-05-11T04:14:23.173Z,50.30
2023-05-11T04:16:49.905Z,50.48
2023-05-11T04:19:17.071Z,50.65
2023-05-11T04:21:44.395Z,50.47
2023-05-11T04:24:11.130Z,50.44
2023-05-11T04:26:38.043Z,50.53
2023-05-11T04:29:05.182Z,50.56
2023-05-11T04:31:32.687Z,50.54
2023-05-11T04:33:59.683Z,50.46
2023-05-11T04:36:26.522Z,50.68
2023-05-11T04:38:53.794Z,50.66
2023-05-11T04:41:21.088Z,50.81
2023-05-11T04:43:47.851Z,50.73
2023-05-11T04:46:15.490Z,50.83
2023-05-11T04:48:42.523Z,50.91
2023-05-11T04:51:10.125Z,50.94
2023-05-11T04:53:36.869Z,50.91
2023-05-11T04:56:03.945Z,50.94
2023-05-11T04:58:31.226Z,50.93
2023-05-11T05:00:58.032Z,50.93
2023-05-11T05:03:25.159Z,50.99
2023-05-11T05:05:52.096Z,51.13
2023-05-11T05:08:18.920Z,51.05
2023-05-11T05:10:47.055Z,51.00
2023-05-11T05:13:14.349Z,51.25
2023-05-11T05:15:41.104Z,51.12
2023-05-11T05:18:08.162Z,51.15
2023-05-11T05:20:35.427Z,51.24
2023-05-11T05:23:02.564Z,51.25
2023-05-11T05:25:29.653Z,51.29
2023-05-11T05:27:56.392Z,51.32
2023-05-11T05:30:23.376Z,51.42
2023-05-11T05:32:51.030Z,51.37
2023-05-11T05:35:17.874Z,51.29
2023-05-11T05:37:44.674Z,51.42
2023-05-11T05:40:11.658Z,51.33
2023-05-11T05:42:39.067Z,51.40
2023-05-11T05:45:06.508Z,51.49
2023-05-11T05:47:33.569Z,51.50
2023-05-11T05:50:00.389Z,51.60
2023-05-11T05:52:27.271Z,51.68
2023-05-11T05:54:54.184Z,51.68
2023-05-11T05:57:21.160Z,51.64
2023-05-11T05:59:47.909Z,51.64
2023-05-11T06:02:14.913Z,51.61
2023-05-11T06:04:42.378Z,51.69
2023-05-11T06:07:09.313Z,51.68
2023-05-11T06:09:37.916Z,51.71
2023-05-11T06:12:06.344Z,51.71
2023-05-11T06:14:33.207Z,51.83
2023-05-11T06:17:00.169Z,51.78
2023-05-11T06:19:26.932Z,52.13
2023-05-11T06:21:53.937Z,52.32
2023-05-11T06:24:20.869Z,52.13
2023-05-11T06:26:47.855Z,52.48
2023-05-11T06:29:14.650Z,52.39
2023-05-11T06:31:41.766Z,52.02
2023-05-11T06:34:09.669Z,52.01
2023-05-11T06:36:36.437Z,51.80
2023-05-11T06:39:03.395Z,52.03
2023-05-11T06:41:30.198Z,52.02
2023-05-11T06:43:56.937Z,52.16
2023-05-11T06:46:23.963Z,52.05
2023-05-11T06:48:50.705Z,52.15
2023-05-11T06:51:17.619Z,52.19
2023-05-11T06:53:44.642Z,51.74
2023-05-11T06:56:11.636Z,51.65
2023-05-11T06:58:38.470Z,52.00
2023-05-11T07:01:09.907Z,51.51
2023-05-11T07:03:36.726Z,51.73
2023-05-11T07:06:03.716Z,51.44
2023-05-11T07:08:30.648Z,51.18
2023-05-11T07:10:57.393Z,51.13
2023-05-11T07:13:24.122Z,50.92
2023-05-11T07:15:51.183Z,50.88
2023-05-11T07:18:18.031Z,50.36
2023-05-11T07:20:46.980Z,50.12
2023-05-11T07:23:13.927Z,50.02
2023-05-11T07:25:40.842Z,49.61
2023-05-11T07:28:07.657Z,49.80
2023-05-11T07:30:34.550Z,49.37
2023-05-11T07:33:02.749Z,48.99
2023-05-11T07:35:29.745Z,48.50
2023-05-11T07:37:56.582Z,48.37
2023-05-11T07:40:23.373Z,48.31
2023-05-11T07:42:50.175Z,48.26
2023-05-11T07:45:17.037Z,47.91
2023-05-11T07:47:45.277Z,47.79
2023-05-11T07:50:12.859Z,47.50
2023-05-11T07:52:39.864Z,47.51
2023-05-11T07:55:06.971Z,47.13
2023-05-11T07:57:33.798Z,46.89
2023-05-11T08:00:00.970Z,47.02
2023-05-11T08:02:28.164Z,46.98
2023-05-11T08:04:55.056Z,46.75
2023-05-11T08:07:21.914Z,46.47
2023-05-11T08:09:48.788Z,46.43
2023-05-11T08:12:15.542Z,46.10
2023-05-11T08:14:43.465Z,45.75
2023-05-11T08:17:11.002Z,45.57
2023-05-11T08:19:38.038Z,45.33
2023-05-11T08:22:05.050Z,44.82
2023-05-11T08:24:31.885Z,44.68
2023-05-11T08:26:58.696Z,44.52
2023-05-11T08:29:27.637Z,44.25
2023-05-11T08:31:54.581Z,44.19
2023-05-11T08:34:22.521Z,43.64
2023-05-11T08:36:49.672Z,43.66
2023-05-11T08:39:24.856Z,43.11
2023-05-11T08:42:05.552Z,43.15
2023-05-11T08:44:33.809Z,42.69
2023-05-11T08:47:18.975Z,42.85
2023-05-11T08:49:47.819Z,42.70
2023-05-11T08:52:14.591Z,42.68
2023-05-11T08:54:41.328Z,42.47
2023-05-11T08:57:08.307Z,42.41
2023-05-11T08:59:35.118Z,41.91
2023-05-11T09:02:02.006Z,41.75
2023-05-11T09:04:28.863Z,41.88
2023-05-11T09:06:55.587Z,41.06
2023-05-11T09:09:23.154Z,41.12
2023-05-11T09:11:50.032Z,40.71
2023-05-11T09:14:16.771Z,40.19
2023-05-11T09:16:43.531Z,39.88
2023-05-11T09:19:14.228Z,39.53
2023-05-11T09:21:40.962Z,39.50
2023-05-11T09:24:07.718Z,39.43
2023-05-11T09:26:34.693Z,39.49
2023-05-11T09:29:02.985Z,38.83
2023-05-11T09:31:44.299Z,39.22
2023-05-11T09:34:18.158Z,38.48
2023-05-11T09:36:46.121Z,38.38
2023-05-11T09:39:15.899Z,38.25
2023-05-11T09:41:43.663Z,38.07
2023-05-11T09:44:15.359Z,37.50
2023-05-11T09:46:44.016Z,37.38
2023-05-11T09:49:11.591Z,37.78
2023-05-11T09:51:40.751Z,37.41
2023-05-11T09:54:17.894Z,38.25
2023-05-11T09:56:46.619Z,37.85
2023-05-11T09:59:15.822Z,37.37
2023-05-11T10:01:42.768Z,37.54
2023-05-11T10:04:22.206Z,37.59
2023-05-11T10:06:53.250Z,37.32
2023-05-11T10:09:24.513Z,36.80
2023-05-11T10:11:51.445Z,36.91
2023-05-11T10:14:18.320Z,36.40
2023-05-11T10:16:45.240Z,36.40
2023-05-11T10:19:13.110Z,36.13
2023-05-11T10:21:40.216Z,35.90
2023-05-11T10:24:07.845Z,35.82
2023-05-11T10:26:34.722Z,35.64
2023-05-11T10:29:01.604Z,35.41
2023-05-11T10:31:29.530Z,35.21
2023-05-11T10:33:57.435Z,35.22
2023-05-11T10:36:24.576Z,35.12
2023-05-11T10:38:51.586Z,34.59
2023-05-11T10:41:40.350Z,34.39
2023-05-11T10:44:07.440Z,34.40
2023-05-11T10:46:55.769Z,34.34
2023-05-11T10:49:44.149Z,34.48
2023-05-11T10:52:21.206Z,34.20
2023-05-11T10:54:56.856Z,33.86
2023-05-11T10:58:07.359Z,34.39
2023-05-11T11:00:56.052Z,34.07
2023-05-11T11:03:22.810Z,33.98
2023-05-11T11:05:49.734Z,33.96
2023-05-11T11:08:16.700Z,33.79
2023-05-11T11:10:46.871Z,33.88
2023-05-11T11:13:14.485Z,33.31
2023-05-11T11:15:56.567Z,33.09
2023-05-11T11:18:27.740Z,32.85
2023-05-11T11:20:55.616Z,32.49
2023-05-11T11:23:44.381Z,32.75
2023-05-11T11:26:11.730Z,33.23
2023-05-11T11:29:00.980Z,32.88
2023-05-11T11:31:28.312Z,32.73
2023-05-11T11:33:59.431Z,32.38
2023-05-11T11:37:02.037Z,32.11
2023-05-11T11:39:30.555Z,31.66
2023-05-11T11:42:04.861Z,31.83
2023-05-11T11:44:31.965Z,32.00
2023-05-11T11:47:22.277Z,31.71
2023-05-11T11:49:53.650Z,31.39
2023-05-11T11:52:30.188Z,31.53
2023-05-11T11:55:00.840Z,30.90
2023-05-11T11:57:33.404Z,30.54
2023-05-11T12:00:00.775Z,31.03
2023-05-11T12:02:29.260Z,30.69
2023-05-11T12:05:13.206Z,30.16
2023-05-11T12:07:47.464Z,30.14
2023-05-11T12:10:14.883Z,29.76
2023-05-11T12:12:45.546Z,29.67
2023-05-11T12:15:28.862Z,29.10
2023-05-11T12:17:56.219Z,28.97
2023-05-11T12:20:23.417Z,29.15
2023-05-11T12:22:50.597Z,28.58
2023-05-11T12:25:18.474Z,28.43
2023-05-11T12:27:57.781Z,28.02
2023-05-11T12:30:29.650Z,28.01
2023-05-11T12:32:57.519Z,27.40
2023-05-11T12:35:27.914Z,27.37
2023-05-11T12:37:54.786Z,27.32
2023-05-11T12:40:21.546Z,27.31
2023-05-11T12:42:55.212Z,26.36
2023-05-11T12:45:23.532Z,26.60
2023-05-11T12:47:51.291Z,26.24
2023-05-11T12:50:18.459Z,26.29
2023-05-11T12:52:45.348Z,25.81
2023-05-11T12:55:12.375Z,25.68
2023-05-11T12:57:40.157Z,25.29
2023-05-11T13:00:08.111Z,24.70
2023-05-11T13:02:35.186Z,24.80
2023-05-11T13:05:11.728Z,25.42
2023-05-11T13:07:38.546Z,25.36
2023-05-11T13:10:05.920Z,26.07
2023-05-11T13:12:34.480Z,26.36
2023-05-11T13:15:20.674Z,26.66
2023-05-11T13:17:47.904Z,26.98
2023-05-11T13:20:29.811Z,27.36
2023-05-11T13:23:17.103Z,27.69
2023-05-11T13:25:46.536Z,27.93
2023-05-11T13:28:16.810Z,28.39
2023-05-11T13:30:43.761Z,28.56
2023-05-11T13:33:10.705Z,28.80
2023-05-11T13:35:43.476Z,29.14
2023-05-11T13:38:10.875Z,29.76
2023-05-11T13:40:37.732Z,29.85
2023-05-11T13:43:04.854Z,29.94
2023-05-11T13:45:32.394Z,30.22
2023-05-11T13:47:59.491Z,30.43
2023-05-11T13:50:26.874Z,30.23
2023-05-11T13:52:53.777Z,30.60
2023-05-11T13:55:21.252Z,30.82
2023-05-11T13:57:48.580Z,30.70
2023-05-11T14:00:16.074Z,31.12
2023-05-11T14:02:44.199Z,30.74
2023-05-11T14:05:11.186Z,30.80
2023-05-11T14:07:46.988Z,30.99
2023-05-11T14:10:18.865Z,31.32
2023-05-11T14:12:46.415Z,31.38
2023-05-11T14:15:13.583Z,31.91
2023-05-11T14:17:43.435Z,32.02
2023-05-11T14:20:13.829Z,32.06
2023-05-11T14:22:41.609Z,32.09
2023-05-11T14:25:09.263Z,32.06
2023-05-11T14:27:36.347Z,32.33
2023-05-11T14:30:03.219Z,31.89
2023-05-11T14:32:30.133Z,32.18
2023-05-11T14:34:56.872Z,32.46
2023-05-11T14:37:23.620Z,32.44
2023-05-11T14:39:50.744Z,32.70
2023-05-11T14:42:18.512Z,32.74
2023-05-11T14:44:46.388Z,32.79
2023-05-11T14:47:13.560Z,32.48
2023-05-11T14:49:40.300Z,32.91
2023-05-11T14:52:07.155Z,33.06
2023-05-11T14:54:35.188Z,32.98
2023-05-11T14:57:01.955Z,33.16
2023-05-11T14:59:28.766Z,33.10
2023-05-11T15:01:55.594Z,33.35
2023-05-11T15:04:22.564Z,33.28
2023-05-11T15:06:49.573Z,33.27
2023-05-11T15:09:16.609Z,33.36
2023-05-11T15:11:43.495Z,33.28
2023-05-11T15:14:10.735Z,33.24
2023-05-11T15:16:38.010Z,33.75
2023-05-11T15:19:05.618Z,33.53
2023-05-11T15:21:32.702Z,34.01
2023-05-11T15:23:59.808Z,34.59
2023-05-11T15:26:27.057Z,35.42
2023-05-11T15:28:53.893Z,35.83
2023-05-11T15:31:21.392Z,36.35
2023-05-11T15:33:48.330Z,36.90
2023-05-11T15:36:15.380Z,37.54
2023-05-11T15:38:42.885Z,37.84
2023-05-11T15:41:09.734Z,37.73
2023-05-11T15:43:36.581Z,37.94
2023-05-11T15:46:07.741Z,38.21
2023-05-11T15:48:34.540Z,38.05
2023-05-11T15:51:01.423Z,38.69
2023-05-11T15:53:28.594Z,38.83
2023-05-11T15:55:55.930Z,38.87
2023-05-11T15:58:22.756Z,39.39
2023-05-11T16:00:49.693Z,39.28
2023-05-11T16:03:16.891Z,39.61
2023-05-11T16:05:44.832Z,39.95
2023-05-11T16:08:12.522Z,39.74
2023-05-11T16:10:39.297Z,40.03
2023-05-11T16:15:33.211Z,40.54
2023-05-11T16:18:03.075Z,40.69
2023-05-11T16:20:31.623Z,40.65
2023-05-11T16:22:58.571Z,40.83
2023-05-11T16:25:25.366Z,41.01
2023-05-11T16:27:52.115Z,40.87
2023-05-11T16:30:24.846Z,40.93
2023-05-11T16:32:52.816Z,41.23
2023-05-11T16:35:20.001Z,41.57
2023-05-11T16:37:47.980Z,41.61
2023-05-11T16:40:18.474Z,41.69
2023-05-11T16:42:47.144Z,41.42
2023-05-11T16:45:15.155Z,41.78
2023-05-11T16:47:42.649Z,41.86
2023-05-11T16:50:14.177Z,41.93
2023-05-11T16:52:41.474Z,41.90
2023-05-11T16:55:08.750Z,41.87
2023-05-11T16:57:36.012Z,41.96
2023-05-11T17:00:03.056Z,42.18
2023-05-11T17:02:29.965Z,41.98
2023-05-11T17:04:56.962Z,42.37
2023-05-11T17:07:25.277Z,42.62
2023-05-11T17:09:56.450Z,42.48
2023-05-11T17:12:26.193Z,42.42
2023-05-11T17:14:52.919Z,42.00
2023-05-11T17:17:19.931Z,41.54
2023-05-11T17:19:46.867Z,41.42
2023-05-11T17:22:13.625Z,41.75
2023-05-11T17:24:41.138Z,41.84
2023-05-11T17:27:08.202Z,41.80
2023-05-11T17:29:35.007Z,41.92
2023-05-11T17:32:02.008Z,42.18
2023-05-11T17:34:29.939Z,42.31
2023-05-11T17:36:57.188Z,42.42
2023-05-11T17:39:24.010Z,42.69
2023-05-11T17:41:51.010Z,42.81
2023-05-11T17:44:17.797Z,43.07
2023-05-11T17:46:45.002Z,42.92
2023-05-11T17:49:11.832Z,43.13
2023-05-11T17:51:38.621Z,43.01
2023-05-11T17:54:05.470Z,43.25
2023-05-11T17:56:32.390Z,43.27
2023-05-11T17:58:59.118Z,43.36
2023-05-11T18:01:27.648Z,43.43
2023-05-11T18:03:54.803Z,43.53
2023-05-11T18:06:21.819Z,43.77
2023-05-11T18:08:48.807Z,43.66
2023-05-11T18:11:15.688Z,43.96
2023-05-11T18:13:42.408Z,43.70
2023-05-11T18:16:09.261Z,44.13
2023-05-11T18:18:37.074Z,44.10
2023-05-11T18:21:07.510Z,44.23
2023-05-11T18:23:34.550Z,44.21
2023-05-11T18:26:01.512Z,44.29
2023-05-11T18:28:28.344Z,44.13
2023-05-11T18:30:55.520Z,44.61
2023-05-11T18:33:22.675Z,44.56
2023-05-11T18:35:52.617Z,44.65
2023-05-11T18:38:19.492Z,44.77
2023-05-11T18:40:46.592Z,44.84
2023-05-11T18:43:14.128Z,44.83
2023-05-11T18:45:41.331Z,44.85
2023-05-11T18:48:08.403Z,44.97
2023-05-11T18:50:35.931Z,45.11
2023-05-11T18:53:02.706Z,45.03
2023-05-11T18:55:33.201Z,45.04
2023-05-11T18:58:05.235Z,45.06
2023-05-11T19:00:37.177Z,45.18
2023-05-11T19:03:04.317Z,45.22
2023-05-11T19:05:31.229Z,45.22
2023-05-11T19:07:58.064Z,45.40
2023-05-11T19:10:24.928Z,45.41
2023-05-11T19:12:51.739Z,45.72
2023-05-11T19:15:18.690Z,45.44
2023-05-11T19:17:45.725Z,45.35
2023-05-11T19:20:12.843Z,45.62
2023-05-11T19:22:39.749Z,45.58
2023-05-11T19:25:07.520Z,45.60
2023-05-11T19:27:34.579Z,45.57
2023-05-11T19:30:01.854Z,45.84
2023-05-11T19:32:28.774Z,46.08
2023-05-11T19:34:55.726Z,45.73
2023-05-11T19:37:22.646Z,45.69
2023-05-11T19:39:49.509Z,45.76
2023-05-11T19:42:16.911Z,45.62
2023-05-11T19:44:49.217Z,45.72
2023-05-11T19:47:17.804Z,45.73
2023-05-11T19:49:44.767Z,45.69
2023-05-11T19:52:11.639Z,45.83
2023-05-11T19:54:38.550Z,45.99
2023-05-11T19:57:05.600Z,45.79
2023-05-11T19:59:35.112Z,45.88
2023-05-11T20:02:02.429Z,45.85
2023-05-11T20:04:29.564Z,45.92
2023-05-11T20:06:57.427Z,45.96
2023-05-11T20:09:27.832Z,46.15
2023-05-11T20:11:54.677Z,46.30
2023-05-11T20:14:21.583Z,46.49
2023-05-11T20:16:48.451Z,46.45
2023-05-11T20:19:15.397Z,46.40
2023-05-11T20:21:42.634Z,46.50
2023-05-11T20:24:09.646Z,46.35
2023-05-11T20:26:39.186Z,46.55
2023-05-11T20:29:07.938Z,46.49
2023-05-11T20:31:34.964Z,46.69
2023-05-11T20:36:31.510Z,46.78
2023-05-11T20:38:59.101Z,46.67
2023-05-11T20:41:26.073Z,47.07
2023-05-11T20:43:53.052Z,47.19
2023-05-11T20:46:20.893Z,46.76
2023-05-11T20:48:51.557Z,46.63
2023-05-11T20:51:23.359Z,46.50
2023-05-11T20:53:50.798Z,46.32
2023-05-11T20:56:17.576Z,46.85
2023-05-11T20:58:47.813Z,46.72
2023-05-11T21:01:14.797Z,46.51
2023-05-11T21:03:41.722Z,46.75
2023-05-11T21:06:09.105Z,46.83
2023-05-11T21:08:36.206Z,46.48
2023-05-11T21:11:03.041Z,46.72
2023-05-11T21:13:29.950Z,46.48
2023-05-11T21:15:56.652Z,46.08
2023-05-11T21:18:23.574Z,46.38
2023-05-11T21:20:50.482Z,45.93
2023-05-11T21:23:17.856Z,45.87
2023-05-11T21:25:44.586Z,45.93
2023-05-11T21:28:11.532Z,45.76
2023-05-11T21:30:38.310Z,45.60
2023-05-11T21:33:05.088Z,45.44
2023-05-11T21:35:31.976Z,45.68
2023-05-11T21:37:58.825Z,45.50
2023-05-11T21:40:26.043Z,45.46
2023-05-11T21:42:52.951Z,45.56
2023-05-11T21:45:20.117Z,45.26
2023-05-11T21:47:47.201Z,45.19
2023-05-11T21:50:14.076Z,45.32
2023-05-11T21:52:40.834Z,45.19
2023-05-11T21:55:08.107Z,45.24
2023-05-11T21:57:34.933Z,45.25
2023-05-11T22:00:02.029Z,44.97
2023-05-11T22:02:28.991Z,44.90
2023-05-11T22:04:56.029Z,44.83
2023-05-11T22:07:23.354Z,44.50
2023-05-11T22:09:50.159Z,44.84
2023-05-11T22:12:17.154Z,44.46
2023-05-11T22:14:43.978Z,44.48
2023-05-11T22:17:11.144Z,44.48
2023-05-11T22:19:38.101Z,44.53
2023-05-11T22:22:05.097Z,44.30
2023-05-11T22:24:31.956Z,43.98
2023-05-11T22:26:59.638Z,44.19
2023-05-11T22:29:26.367Z,43.81
2023-05-11T22:31:53.135Z,43.79
2023-05-11T22:34:21.318Z,43.99
2023-05-11T22:36:48.116Z,43.67
2023-05-11T22:39:14.881Z,44.15
2023-05-11T22:41:41.830Z,43.82
2023-05-11T22:44:08.763Z,43.64
2023-05-11T22:46:35.872Z,43.64
2023-05-11T22:49:02.769Z,43.97
2023-05-11T22:51:29.604Z,43.94
2023-05-11T22:53:56.345Z,43.92
2023-05-11T22:56:23.181Z,43.34
2023-05-11T22:58:50.176Z,43.49
2023-05-11T23:01:17.091Z,43.47
2023-05-11T23:03:44.024Z,43.35
2023-05-11T23:06:10.965Z,42.97
2023-05-11T23:08:37.715Z,43.52
2023-05-11T23:11:04.824Z,43.33
2023-05-11T23:13:31.556Z,43.27
2023-05-11T23:15:58.472Z,43.93
2023-05-11T23:18:25.515Z,43.91
2023-05-11T23:20:58.593Z,43.95
2023-05-11T23:23:25.852Z,43.72
2023-05-11T23:25:52.937Z,43.75
2023-05-11T23:28:20.090Z,43.84
2023-05-11T23:30:47.564Z,43.62
2023-05-11T23:33:14.856Z,43.94
2023-05-11T23:35:41.713Z,43.75
2023-05-11T23:38:08.622Z,43.78
2023-05-11T23:40:35.773Z,43.71
2023-05-11T23:43:02.556Z,43.74
2023-05-11T23:45:29.328Z,44.11
2023-05-11T23:47:56.581Z,43.75
2023-05-11T23:50:23.586Z,44.05
2023-05-11T23:52:50.471Z,44.12
2023-05-11T23:55:17.464Z,44.22
2023-05-11T23:57:45.094Z,44.26
